Terminal Aerodrome Forecast
Issued by NWS Charleston, WV

Current Version | Previous Version | Graphics & Text | Print | Product List | Glossary On
Versions: 1 2 3 4 5 6 7 8 9 10 11 12 13 14 15 16 17 18 19 20 21 22 23 24 25 26 27 28 29
000
FTUS41 KRLX 252300
TAFCRW
TAF
KCRW 252324Z 2600/2624 17004KT P6SM BKN070 BKN090
     FM260200 15004KT 5SM -RA BR BKN050
     FM260500 13004KT 2SM -RA BR OVC020
     FM260700 13004KT 2SM -RASNPL BR OVC015
     FM261200 00000KT 2SM -RASN BR OVC008=

USA.gov is the U.S. government's official web portal to all federal, state and local government web resources and services.